createdAt,value
2017-12-21T00:00:33.713Z,9.48
2017-12-21T00:01:33.704Z,9.58
2017-12-21T00:02:33.701Z,9.49
2017-12-21T00:03:33.694Z,9.45
2017-12-21T00:04:33.686Z,9.55
2017-12-21T00:05:33.675Z,9.59
2017-12-21T00:06:33.666Z,9.50
2017-12-21T00:07:33.660Z,9.55
2017-12-21T00:08:33.648Z,9.48
2017-12-21T00:09:33.640Z,9.45
2017-12-21T00:10:33.679Z,9.50
2017-12-21T00:11:33.619Z,9.49
2017-12-21T00:12:33.610Z,9.42
2017-12-21T00:13:33.603Z,9.48
2017-12-21T00:14:33.594Z,9.53
2017-12-21T00:15:33.586Z,9.50
2017-12-21T00:16:33.577Z,9.37
2017-12-21T00:17:33.568Z,9.44
2017-12-21T00:18:33.565Z,9.49
2017-12-21T00:19:33.560Z,9.45
2017-12-21T00:20:33.545Z,9.49
2017-12-21T00:21:33.538Z,9.48
2017-12-21T00:22:33.531Z,9.50
2017-12-21T00:23:33.521Z,9.44
2017-12-21T00:24:33.512Z,9.50
2017-12-21T00:25:33.505Z,9.48
2017-12-21T00:26:33.491Z,9.49
2017-12-21T00:27:33.485Z,9.44
2017-12-21T00:28:33.473Z,9.48
2017-12-21T00:29:33.470Z,9.52
2017-12-21T00:30:33.457Z,9.53
2017-12-21T00:31:33.450Z,9.49
2017-12-21T00:32:33.442Z,9.53
2017-12-21T00:33:33.432Z,9.53
2017-12-21T00:34:33.429Z,9.52
2017-12-21T00:35:33.420Z,9.49
2017-12-21T00:36:33.410Z,9.50
2017-12-21T00:37:33.402Z,9.53
2017-12-21T00:38:33.394Z,9.53
2017-12-21T00:39:33.385Z,9.48
2017-12-21T00:40:33.379Z,9.58
2017-12-21T00:41:33.371Z,9.55
2017-12-21T00:42:33.355Z,9.49
2017-12-21T00:43:33.347Z,9.55
2017-12-21T00:44:33.337Z,9.49
2017-12-21T00:45:33.331Z,9.49
2017-12-21T00:46:33.325Z,9.48
2017-12-21T00:47:33.317Z,9.44
2017-12-21T00:48:33.308Z,9.42
2017-12-21T00:49:33.301Z,9.44
2017-12-21T00:50:33.289Z,9.45
2017-12-21T00:51:33.287Z,9.44
2017-12-21T00:52:33.272Z,9.42
2017-12-21T00:53:33.262Z,9.45
2017-12-21T00:54:33.252Z,9.48
2017-12-21T00:55:33.244Z,9.38
2017-12-21T00:56:33.236Z,9.42
2017-12-21T00:57:33.227Z,9.42
2017-12-21T00:58:33.225Z,9.48
2017-12-21T00:59:33.216Z,9.42
2017-12-21T01:00:33.207Z,9.50
2017-12-21T01:01:33.198Z,9.45
2017-12-21T01:02:33.190Z,9.49
2017-12-21T01:03:33.181Z,9.42
2017-12-21T01:04:33.171Z,9.45
2017-12-21T01:05:33.163Z,9.44
2017-12-21T01:06:33.151Z,9.40
2017-12-21T01:07:33.142Z,9.45
2017-12-21T01:08:33.134Z,9.42
2017-12-21T01:09:33.126Z,9.42
2017-12-21T01:10:33.118Z,9.41
2017-12-21T01:11:33.109Z,9.41
2017-12-21T01:12:33.099Z,9.40
2017-12-21T01:13:33.091Z,9.40
2017-12-21T01:14:33.087Z,9.45
2017-12-21T01:15:33.080Z,9.41
2017-12-21T01:16:33.070Z,9.44
2017-12-21T01:17:33.062Z,9.49
2017-12-21T01:18:33.053Z,9.37
2017-12-21T01:19:33.047Z,9.50
2017-12-21T01:20:33.038Z,9.49
2017-12-21T01:21:33.029Z,9.38
2017-12-21T01:22:33.015Z,9.50
2017-12-21T01:23:33.009Z,9.41
2017-12-21T01:24:32.998Z,9.42
2017-12-21T01:25:32.991Z,9.41
2017-12-21T01:26:32.981Z,9.45
2017-12-21T01:27:32.973Z,9.41
2017-12-21T01:28:32.964Z,9.38
2017-12-21T01:29:32.955Z,9.37
2017-12-21T01:30:32.952Z,9.45
2017-12-21T01:31:32.943Z,9.42
2017-12-21T01:32:32.934Z,9.40
2017-12-21T01:33:32.925Z,9.40
2017-12-21T01:34:32.916Z,9.41
2017-12-21T01:35:32.908Z,9.44
2017-12-21T01:36:32.900Z,9.42
2017-12-21T01:37:32.891Z,9.45
2017-12-21T01:38:32.880Z,9.37
2017-12-21T01:39:32.870Z,9.37
2017-12-21T01:40:32.862Z,9.37
2017-12-21T01:41:32.854Z,9.41
2017-12-21T01:42:32.846Z,9.41
2017-12-21T01:43:32.837Z,9.42
2017-12-21T01:44:32.827Z,9.41
2017-12-21T01:45:32.820Z,9.41
2017-12-21T01:46:32.814Z,9.41
2017-12-21T01:47:32.806Z,9.42
2017-12-21T01:48:32.798Z,9.44
2017-12-21T01:49:32.790Z,9.44
2017-12-21T01:50:32.777Z,9.41
2017-12-21T01:51:32.769Z,9.50
2017-12-21T01:52:32.759Z,9.44
2017-12-21T01:53:32.751Z,9.42
2017-12-21T01:54:32.747Z,9.42
2017-12-21T01:55:32.738Z,9.37
2017-12-21T01:56:32.730Z,9.41
2017-12-21T01:57:32.720Z,9.49
2017-12-21T01:58:32.712Z,9.42
2017-12-21T01:59:32.705Z,9.45
2017-12-21T02:00:32.694Z,9.42
2017-12-21T02:01:32.688Z,9.41
2017-12-21T02:02:32.674Z,9.45
2017-12-21T02:03:32.666Z,9.38
2017-12-21T02:04:32.657Z,9.41
2017-12-21T02:05:32.650Z,9.45
2017-12-21T02:06:32.640Z,9.38
2017-12-21T02:07:32.632Z,9.35
2017-12-21T02:08:32.623Z,9.27
2017-12-21T02:09:32.614Z,9.34
2017-12-21T02:10:32.610Z,9.34
2017-12-21T02:11:32.602Z,9.34
2017-12-21T02:12:32.593Z,9.31
2017-12-21T02:13:32.585Z,9.31
2017-12-21T02:14:32.577Z,9.30
2017-12-21T02:15:32.569Z,9.27
2017-12-21T02:16:32.558Z,9.27
2017-12-21T02:17:32.550Z,9.30
2017-12-21T02:18:32.537Z,9.41
2017-12-21T02:19:32.530Z,9.38
2017-12-21T02:20:32.521Z,9.40
2017-12-21T02:21:32.513Z,9.30
2017-12-21T02:22:32.503Z,9.35
2017-12-21T02:23:32.494Z,9.37
2017-12-21T02:24:32.486Z,9.27
2017-12-21T02:25:32.478Z,9.26
2017-12-21T02:26:32.474Z,9.27
2017-12-21T02:27:32.468Z,9.35
2017-12-21T02:28:32.457Z,9.31
2017-12-21T02:29:32.447Z,9.38
2017-12-21T02:30:32.440Z,9.37
2017-12-21T02:31:32.432Z,9.40
2017-12-21T02:32:32.421Z,9.31
2017-12-21T02:33:32.414Z,9.27
2017-12-21T02:34:32.402Z,9.38
2017-12-21T02:35:32.393Z,9.37
2017-12-21T02:36:32.383Z,9.44
2017-12-21T02:37:32.375Z,9.44
2017-12-21T02:38:32.366Z,9.41
2017-12-21T02:39:32.358Z,9.44
2017-12-21T02:40:32.348Z,9.44
2017-12-21T02:41:32.340Z,9.41
2017-12-21T02:42:32.335Z,9.44
2017-12-21T02:43:32.329Z,9.48
2017-12-21T02:44:32.317Z,9.45
2017-12-21T02:45:32.311Z,9.49
2017-12-21T02:46:32.302Z,9.41
2017-12-21T02:47:32.294Z,9.48
2017-12-21T02:48:32.284Z,9.48
2017-12-21T02:49:32.276Z,9.53
2017-12-21T02:50:32.263Z,9.41
2017-12-21T02:51:32.254Z,9.41
2017-12-21T02:52:32.245Z,9.38
2017-12-21T02:53:32.237Z,9.41
2017-12-21T02:54:32.233Z,9.50
2017-12-21T02:55:32.223Z,9.52
2017-12-21T02:56:32.215Z,9.52
2017-12-21T02:57:32.207Z,9.53
2017-12-21T02:58:32.194Z,9.49
2017-12-21T02:59:32.186Z,9.45
2017-12-21T03:00:32.176Z,9.45
2017-12-21T03:01:32.168Z,9.45
2017-12-21T03:02:32.160Z,9.40
2017-12-21T03:03:32.151Z,9.45
2017-12-21T03:04:32.142Z,9.44
2017-12-21T03:05:32.133Z,9.45
2017-12-21T03:06:32.128Z,9.41
2017-12-21T03:07:32.121Z,9.49
2017-12-21T03:08:32.114Z,9.49
2017-12-21T03:09:32.103Z,9.44
2017-12-21T03:10:32.094Z,9.45
2017-12-21T03:11:32.087Z,9.41
2017-12-21T03:12:32.075Z,9.38
2017-12-21T03:13:32.068Z,9.42
2017-12-21T03:14:32.056Z,9.44
2017-12-21T03:15:32.047Z,9.35
2017-12-21T03:16:32.037Z,9.44
2017-12-21T03:17:32.029Z,9.42
2017-12-21T03:18:32.022Z,9.42
2017-12-21T03:19:32.011Z,9.45
2017-12-21T03:20:32.009Z,9.44
2017-12-21T03:21:31.995Z,9.42
2017-12-21T03:22:31.990Z,9.40
2017-12-21T03:23:31.984Z,9.41
2017-12-21T03:24:31.972Z,9.38
2017-12-21T03:25:31.966Z,9.40
2017-12-21T03:26:31.955Z,9.40
2017-12-21T03:27:31.948Z,9.41
2017-12-21T03:28:31.939Z,9.44
2017-12-21T03:29:31.930Z,9.41
2017-12-21T03:30:31.918Z,9.41
2017-12-21T03:31:31.908Z,9.38
2017-12-21T03:32:31.900Z,9.42
2017-12-21T03:33:31.891Z,9.45
2017-12-21T03:34:31.882Z,9.49
2017-12-21T03:35:31.926Z,9.50
2017-12-21T03:36:31.864Z,9.42
2017-12-21T03:37:31.857Z,9.45
2017-12-21T03:38:31.855Z,9.35
2017-12-21T03:39:31.844Z,9.49
2017-12-21T03:40:31.835Z,9.49
2017-12-21T03:41:31.827Z,9.42
2017-12-21T03:42:31.818Z,9.38
2017-12-21T03:43:31.810Z,9.38
2017-12-21T03:44:31.799Z,9.37
2017-12-21T03:45:31.792Z,9.38
2017-12-21T03:46:31.780Z,9.35
2017-12-21T03:47:31.771Z,9.32
2017-12-21T03:48:31.765Z,9.31
2017-12-21T03:49:31.754Z,9.27
2017-12-21T03:50:31.745Z,9.27
2017-12-21T03:51:31.737Z,9.27
2017-12-21T03:52:31.727Z,9.35
2017-12-21T03:53:31.719Z,9.34
2017-12-21T03:54:31.715Z,9.27
2017-12-21T03:55:31.706Z,9.31
2017-12-21T03:56:31.696Z,9.32
2017-12-21T03:57:31.688Z,9.27
2017-12-21T03:58:31.680Z,9.32
2017-12-21T03:59:31.667Z,9.31
2017-12-21T04:00:31.658Z,9.24
2017-12-21T04:01:31.650Z,9.41
2017-12-21T04:02:31.648Z,9.30
2017-12-21T04:03:31.638Z,9.41
2017-12-21T04:04:31.628Z,9.31
2017-12-21T04:05:31.620Z,9.31
2017-12-21T04:06:31.611Z,9.30
2017-12-21T04:07:31.603Z,9.27
2017-12-21T04:08:31.593Z,9.27
2017-12-21T04:09:31.585Z,9.27
2017-12-21T04:10:31.573Z,9.27
2017-12-21T04:11:31.564Z,9.31
2017-12-21T04:12:31.555Z,9.32
2017-12-21T04:13:31.548Z,9.30
2017-12-21T04:14:31.538Z,9.27
2017-12-21T04:15:31.529Z,9.37
2017-12-21T04:16:31.521Z,9.30
2017-12-21T04:17:31.513Z,9.31
2017-12-21T04:18:31.509Z,9.38
2017-12-21T04:19:31.501Z,9.26
2017-12-21T04:20:31.491Z,9.38
2017-12-21T04:21:31.482Z,9.41
2017-12-21T04:22:31.474Z,9.40
2017-12-21T04:23:31.465Z,9.34
2017-12-21T04:24:31.455Z,9.37
2017-12-21T04:25:31.448Z,9.37
2017-12-21T04:26:31.435Z,9.42
2017-12-21T04:27:31.426Z,9.41
2017-12-21T04:28:31.418Z,9.40
2017-12-21T04:29:31.408Z,9.41
2017-12-21T04:30:31.401Z,9.44
2017-12-21T04:31:31.392Z,9.42
2017-12-21T04:32:31.382Z,9.42
2017-12-21T04:33:31.375Z,9.45
2017-12-21T04:34:31.371Z,9.44
2017-12-21T04:35:31.362Z,9.44
2017-12-21T04:36:31.359Z,9.49
2017-12-21T04:37:31.345Z,9.42
2017-12-21T04:38:31.336Z,9.49
2017-12-21T04:39:31.328Z,9.56
2017-12-21T04:40:31.318Z,9.45
2017-12-21T04:41:31.309Z,9.49
2017-12-21T04:42:31.297Z,9.45
2017-12-21T04:43:31.292Z,9.45
2017-12-21T04:44:31.279Z,9.44
2017-12-21T04:45:31.270Z,9.50
2017-12-21T04:46:31.262Z,9.45
2017-12-21T04:47:31.254Z,9.41
2017-12-21T04:48:31.245Z,9.41
2017-12-21T04:49:31.237Z,9.41
2017-12-21T04:50:31.233Z,9.37
2017-12-21T04:51:31.226Z,9.42
2017-12-21T04:52:31.216Z,9.42
2017-12-21T04:53:31.207Z,9.41
2017-12-21T04:54:31.198Z,9.42
2017-12-21T04:55:31.193Z,9.50
2017-12-21T04:56:31.238Z,9.50
2017-12-21T04:57:31.172Z,9.44
2017-12-21T04:58:31.160Z,9.37
2017-12-21T04:59:31.152Z,9.41
2017-12-21T05:00:31.148Z,9.40
2017-12-21T05:01:31.134Z,9.41
2017-12-21T05:02:31.130Z,9.44
2017-12-21T05:03:31.121Z,9.48
2017-12-21T05:04:31.112Z,9.40
2017-12-21T05:05:31.103Z,9.40
2017-12-21T05:06:31.091Z,9.44
2017-12-21T05:07:31.082Z,9.38
2017-12-21T05:08:31.072Z,9.40
2017-12-21T05:09:31.066Z,9.37
2017-12-21T05:10:31.057Z,9.40
2017-12-21T05:11:31.048Z,9.45
2017-12-21T05:12:31.102Z,9.45
2017-12-21T05:13:31.031Z,9.40
2017-12-21T05:14:31.026Z,9.41
2017-12-21T05:15:31.017Z,9.42
2017-12-21T05:16:31.008Z,9.45
2017-12-21T05:17:30.999Z,9.35
2017-12-21T05:18:30.992Z,9.40
2017-12-21T05:19:30.983Z,9.41
2017-12-21T05:20:30.974Z,9.41
2017-12-21T05:21:30.966Z,9.45
2017-12-21T05:22:30.954Z,9.41
2017-12-21T05:23:30.944Z,9.41
2017-12-21T05:24:30.934Z,9.40
2017-12-21T05:25:30.927Z,9.30
2017-12-21T05:26:30.919Z,9.31
2017-12-21T05:27:30.909Z,9.26
2017-12-21T05:28:30.901Z,9.24
2017-12-21T05:29:30.893Z,9.37
2017-12-21T05:30:30.887Z,9.35
2017-12-21T05:31:30.880Z,9.37
2017-12-21T05:32:30.870Z,9.42
2017-12-21T05:33:30.861Z,9.40
2017-12-21T05:34:30.857Z,9.37
2017-12-21T05:35:30.844Z,9.30
2017-12-21T05:36:30.834Z,9.31
2017-12-21T05:37:30.825Z,9.42
2017-12-21T05:38:30.817Z,9.34
2017-12-21T05:39:30.806Z,9.30
2017-12-21T05:40:30.795Z,9.35
2017-12-21T05:41:30.787Z,9.38
2017-12-21T05:42:30.778Z,9.38
2017-12-21T05:43:30.770Z,9.38
2017-12-21T05:44:30.760Z,9.41
2017-12-21T05:45:30.755Z,9.37
2017-12-21T05:46:30.749Z,9.41
2017-12-21T05:47:30.742Z,9.40
2017-12-21T05:48:30.732Z,9.44
2017-12-21T05:49:30.722Z,9.44
2017-12-21T05:50:30.713Z,9.42
2017-12-21T05:51:30.704Z,9.44
2017-12-21T05:52:30.696Z,9.48
2017-12-21T05:53:30.687Z,9.41
2017-12-21T05:54:30.672Z,9.45
2017-12-21T05:55:30.665Z,9.42
2017-12-21T05:56:30.656Z,9.50
2017-12-21T05:57:30.647Z,9.45
2017-12-21T05:58:30.638Z,9.41
2017-12-21T05:59:30.636Z,9.37
2017-12-21T06:00:30.621Z,9.42
2017-12-21T06:01:30.611Z,9.44
2017-12-21T06:02:30.608Z,9.41
2017-12-21T06:03:30.599Z,9.40
2017-12-21T06:04:30.635Z,9.41
2017-12-21T06:05:30.581Z,9.40
2017-12-21T06:06:30.569Z,9.35
2017-12-21T06:07:30.559Z,9.35
2017-12-21T06:08:30.550Z,9.42
2017-12-21T06:09:30.542Z,9.35
2017-12-21T06:10:30.537Z,9.40
2017-12-21T06:11:30.530Z,9.37
2017-12-21T06:12:30.518Z,9.38
2017-12-21T06:13:30.510Z,9.34
2017-12-21T06:14:30.504Z,9.38
2017-12-21T06:15:30.500Z,9.32
2017-12-21T06:16:30.485Z,9.31
2017-12-21T06:17:30.476Z,9.35
2017-12-21T06:18:30.463Z,9.35
2017-12-21T06:19:30.455Z,9.38
2017-12-21T06:20:30.445Z,9.44
2017-12-21T06:21:30.438Z,9.40
2017-12-21T06:22:30.429Z,9.40
2017-12-21T06:23:30.420Z,9.40
2017-12-21T06:24:30.411Z,9.35
2017-12-21T06:25:30.401Z,9.27
2017-12-21T06:26:30.398Z,9.31
2017-12-21T06:27:30.388Z,9.30
2017-12-21T06:28:30.380Z,9.31
2017-12-21T06:29:30.372Z,9.37
2017-12-21T06:30:30.362Z,9.44
2017-12-21T06:31:30.355Z,9.40
2017-12-21T06:32:30.346Z,9.44
2017-12-21T06:33:30.337Z,9.37
2017-12-21T06:34:30.325Z,9.37
2017-12-21T06:35:30.314Z,9.40
2017-12-21T06:36:30.306Z,9.27
2017-12-21T06:37:30.300Z,9.40
2017-12-21T06:38:30.288Z,9.44
2017-12-21T06:39:30.281Z,9.38
2017-12-21T06:40:30.272Z,9.41
2017-12-21T06:41:30.265Z,9.44
2017-12-21T06:42:30.258Z,9.42
2017-12-21T06:43:30.250Z,9.40
2017-12-21T06:44:30.243Z,9.50
2017-12-21T06:45:30.232Z,9.44
2017-12-21T06:46:30.222Z,9.44
2017-12-21T06:47:30.214Z,9.40
2017-12-21T06:48:30.205Z,9.44
2017-12-21T06:49:30.197Z,9.42
2017-12-21T06:50:30.184Z,9.38
2017-12-21T06:51:30.179Z,9.42
2017-12-21T06:52:30.166Z,9.40
2017-12-21T06:53:30.159Z,9.44
2017-12-21T06:54:30.149Z,9.41
2017-12-21T06:55:30.141Z,9.40
2017-12-21T06:56:30.132Z,9.38
2017-12-21T06:57:30.122Z,9.41
2017-12-21T06:58:30.118Z,9.38
2017-12-21T06:59:30.110Z,9.44
2017-12-21T07:00:30.100Z,9.40
2017-12-21T07:01:30.092Z,9.40
2017-12-21T07:02:30.084Z,9.42
2017-12-21T07:03:30.076Z,9.42
2017-12-21T07:04:30.066Z,9.41
2017-12-21T07:05:30.058Z,9.42
2017-12-21T07:06:30.046Z,9.45
2017-12-21T07:07:30.036Z,9.41
2017-12-21T07:08:30.028Z,9.45
2017-12-21T07:09:30.019Z,9.45
2017-12-21T07:10:30.011Z,9.44
2017-12-21T07:11:30.005Z,9.44
2017-12-21T07:12:29.992Z,9.40
2017-12-21T07:13:29.985Z,9.45
2017-12-21T07:14:29.981Z,9.38
2017-12-21T07:15:29.972Z,9.42
2017-12-21T07:16:29.963Z,9.44
2017-12-21T07:17:29.955Z,9.45
2017-12-21T07:18:29.952Z,9.45
2017-12-21T07:19:29.939Z,9.38
2017-12-21T07:20:29.928Z,9.50
2017-12-21T07:21:29.921Z,9.35
2017-12-21T07:22:29.908Z,9.50
2017-12-21T07:23:29.899Z,9.41
2017-12-21T07:24:29.889Z,9.44
2017-12-21T07:25:29.881Z,9.44
2017-12-21T07:26:29.876Z,9.50
2017-12-21T07:27:29.863Z,9.35
2017-12-21T07:28:29.854Z,9.48
2017-12-21T07:29:29.846Z,9.48
2017-12-21T07:30:29.842Z,9.42
2017-12-21T07:31:29.841Z,9.42
2017-12-21T07:32:29.824Z,9.41
2017-12-21T07:33:29.816Z,9.41
2017-12-21T07:34:29.807Z,9.50
2017-12-21T07:35:29.799Z,9.49
2017-12-21T07:36:29.789Z,9.45
2017-12-21T07:37:29.782Z,9.45
2017-12-21T07:38:29.769Z,9.48
2017-12-21T07:39:29.761Z,9.44
2017-12-21T07:40:29.750Z,9.41
2017-12-21T07:41:29.743Z,9.48
2017-12-21T07:42:29.734Z,9.50
2017-12-21T07:43:29.724Z,9.42
2017-12-21T07:44:29.717Z,9.41
2017-12-21T07:45:29.706Z,9.45
2017-12-21T07:46:29.704Z,9.41
2017-12-21T07:47:29.694Z,9.50
2017-12-21T07:48:29.686Z,9.42
2017-12-21T07:49:29.678Z,9.42
2017-12-21T07:50:29.667Z,9.49
2017-12-21T07:51:29.661Z,9.55
2017-12-21T07:52:29.651Z,9.52
2017-12-21T07:53:29.643Z,9.53
2017-12-21T07:54:29.630Z,9.52
2017-12-21T07:55:29.622Z,9.48
2017-12-21T07:56:29.616Z,9.50
2017-12-21T07:57:29.605Z,9.50
2017-12-21T07:58:29.595Z,9.53
2017-12-21T07:59:29.588Z,9.53
2017-12-21T08:00:29.577Z,9.49
2017-12-21T08:01:29.569Z,9.50
2017-12-21T08:02:29.566Z,9.50
2017-12-21T08:03:29.557Z,9.50
2017-12-21T08:04:29.548Z,9.50
2017-12-21T08:05:29.538Z,9.55
2017-12-21T08:06:29.531Z,9.48
2017-12-21T08:07:29.523Z,9.48
2017-12-21T08:08:29.513Z,9.52
2017-12-21T08:09:29.505Z,9.42
2017-12-21T08:10:29.492Z,9.50
2017-12-21T08:11:29.484Z,9.45
2017-12-21T08:12:29.474Z,9.44
2017-12-21T08:13:29.466Z,9.50
2017-12-21T08:14:29.463Z,9.53
2017-12-21T08:15:29.453Z,9.48
2017-12-21T08:16:29.444Z,9.56
2017-12-21T08:17:29.437Z,9.59
2017-12-21T08:18:29.423Z,9.58
2017-12-21T08:19:29.415Z,9.60
2017-12-21T08:20:29.405Z,9.53
2017-12-21T08:21:29.398Z,9.62
2017-12-21T08:22:29.392Z,9.60
2017-12-21T08:23:29.382Z,9.60
2017-12-21T08:24:29.372Z,9.48
2017-12-21T08:25:29.363Z,9.52
2017-12-21T08:26:29.360Z,9.56
2017-12-21T08:27:29.351Z,9.63
2017-12-21T08:28:29.342Z,9.59
2017-12-21T08:29:29.334Z,9.60
2017-12-21T08:30:29.325Z,9.60
2017-12-21T08:31:29.317Z,9.58
2017-12-21T08:32:29.308Z,9.70
2017-12-21T08:33:29.299Z,9.62
2017-12-21T08:34:29.289Z,9.60
2017-12-21T08:35:29.279Z,9.60
2017-12-21T08:36:29.270Z,9.50
2017-12-21T08:37:29.261Z,9.58
2017-12-21T08:38:29.253Z,9.63
2017-12-21T08:39:29.246Z,9.50
2017-12-21T08:40:29.236Z,9.53
2017-12-21T08:41:29.227Z,9.49
2017-12-21T08:42:29.224Z,9.52
2017-12-21T08:43:29.215Z,9.56
2017-12-21T08:44:29.206Z,9.56
2017-12-21T08:45:29.198Z,9.58
2017-12-21T08:46:29.191Z,9.67
2017-12-21T08:47:29.182Z,9.55
2017-12-21T08:48:29.171Z,9.65
2017-12-21T08:49:29.164Z,9.67
2017-12-21T08:50:29.152Z,9.65
2017-12-21T08:51:29.143Z,9.70
2017-12-21T08:52:29.135Z,9.63
2017-12-21T08:53:29.126Z,9.73
2017-12-21T08:54:29.137Z,9.74
2017-12-21T08:55:29.109Z,9.80
2017-12-21T08:56:29.100Z,9.95
2017-12-21T08:57:29.092Z,9.99
2017-12-21T08:58:29.089Z,9.88
2017-12-21T08:59:29.080Z,9.78
2017-12-21T09:00:29.071Z,9.92
2017-12-21T09:01:29.063Z,9.98
2017-12-21T09:02:29.055Z,9.95
2017-12-21T09:03:29.048Z,10.10
2017-12-21T09:04:29.037Z,10.10
2017-12-21T09:05:29.031Z,10.14
2017-12-21T09:06:29.017Z,10.20
2017-12-21T09:07:29.010Z,10.14
2017-12-21T09:08:29.001Z,10.24
2017-12-21T09:09:28.992Z,10.25
2017-12-21T09:10:28.988Z,10.20
2017-12-21T09:11:28.977Z,10.20
2017-12-21T09:12:28.969Z,10.20
2017-12-21T09:13:28.961Z,10.26
2017-12-21T09:14:28.956Z,10.39
2017-12-21T09:15:28.948Z,10.36
2017-12-21T09:16:28.941Z,10.34
2017-12-21T09:17:28.932Z,10.34
2017-12-21T09:18:28.921Z,10.28
2017-12-21T09:19:28.913Z,10.24
2017-12-21T09:20:28.905Z,10.24
2017-12-21T09:21:28.897Z,10.25
2017-12-21T09:22:28.894Z,10.18
2017-12-21T09:23:28.885Z,10.18
2017-12-21T09:24:28.877Z,10.14
2017-12-21T09:25:28.870Z,10.16
2017-12-21T09:26:28.862Z,10.20
2017-12-21T09:27:28.854Z,10.14
2017-12-21T09:28:28.844Z,10.14
2017-12-21T09:29:28.838Z,10.14
2017-12-21T09:30:28.825Z,10.14
2017-12-21T09:31:28.817Z,10.26
2017-12-21T09:32:28.809Z,10.20
2017-12-21T09:33:28.801Z,10.31
2017-12-21T09:34:28.793Z,10.24
2017-12-21T09:35:28.786Z,10.35
2017-12-21T09:36:28.778Z,10.24
2017-12-21T09:37:28.770Z,10.29
2017-12-21T09:38:28.766Z,10.25
2017-12-21T09:39:28.759Z,10.26
2017-12-21T09:40:28.749Z,10.18
2017-12-21T09:41:28.741Z,10.26
2017-12-21T09:42:28.734Z,10.22
2017-12-21T09:43:28.727Z,10.22
2017-12-21T09:44:28.718Z,10.22
2017-12-21T09:45:28.712Z,10.11
2017-12-21T09:46:28.701Z,10.17
2017-12-21T09:47:28.691Z,10.17
2017-12-21T09:48:28.682Z,10.13
2017-12-21T09:49:28.675Z,10.24
2017-12-21T09:50:28.667Z,10.22
2017-12-21T09:51:28.659Z,10.28
2017-12-21T09:52:28.650Z,10.20
2017-12-21T09:53:28.642Z,10.24
2017-12-21T09:54:28.640Z,10.22
2017-12-21T09:55:28.632Z,10.22
2017-12-21T09:56:28.622Z,10.28
2017-12-21T09:57:28.616Z,10.26
2017-12-21T09:58:28.608Z,10.29
2017-12-21T09:59:28.602Z,10.35
2017-12-21T10:00:28.590Z,10.32
2017-12-21T10:01:28.582Z,10.31
2017-12-21T10:02:28.572Z,10.34
2017-12-21T10:03:28.565Z,10.54
2017-12-21T10:04:28.555Z,10.43
2017-12-21T10:05:28.548Z,10.49
2017-12-21T10:06:28.540Z,10.43
2017-12-21T10:07:28.532Z,10.49
2017-12-21T10:08:28.523Z,10.44
2017-12-21T10:09:28.516Z,10.60
2017-12-21T10:10:28.512Z,10.55
2017-12-21T10:11:28.505Z,10.51
2017-12-21T10:12:28.496Z,10.60
2017-12-21T10:13:28.489Z,10.68
2017-12-21T10:14:28.481Z,10.63
2017-12-21T10:15:28.472Z,10.62
2017-12-21T10:16:28.464Z,10.58
2017-12-21T10:17:28.457Z,10.58
2017-12-21T10:18:28.447Z,10.58
2017-12-21T10:19:28.436Z,10.51
2017-12-21T10:20:28.429Z,10.46
2017-12-21T10:21:28.421Z,10.52
2017-12-21T10:22:28.417Z,10.52
2017-12-21T10:23:28.411Z,10.47
2017-12-21T10:24:28.401Z,10.46
2017-12-21T10:25:28.395Z,10.46
2017-12-21T10:26:28.383Z,10.42
2017-12-21T10:27:28.374Z,10.52
2017-12-21T10:28:28.394Z,10.47
2017-12-21T10:29:28.358Z,10.46
2017-12-21T10:30:28.351Z,10.35
2017-12-21T10:31:28.343Z,10.38
2017-12-21T10:32:28.335Z,10.44
2017-12-21T10:33:28.327Z,10.46
2017-12-21T10:34:28.324Z,10.29
2017-12-21T10:35:28.315Z,10.46
2017-12-21T10:36:28.307Z,10.38
2017-12-21T10:37:28.300Z,10.51
2017-12-21T10:38:28.293Z,10.54
2017-12-21T10:39:28.285Z,10.55
2017-12-21T10:40:28.277Z,10.49
2017-12-21T10:41:28.270Z,10.51
2017-12-21T10:42:28.257Z,10.55
2017-12-21T10:43:28.249Z,10.55
2017-12-21T10:44:28.241Z,10.66
2017-12-21T10:45:28.244Z,10.58
2017-12-21T10:46:28.225Z,10.49
2017-12-21T10:47:28.218Z,10.60
2017-12-21T10:48:28.209Z,10.49
2017-12-21T10:49:28.202Z,10.63
2017-12-21T10:50:28.199Z,10.68
2017-12-21T10:51:28.192Z,10.68
2017-12-21T10:52:28.183Z,10.84
2017-12-21T10:53:28.175Z,10.83
2017-12-21T10:54:28.168Z,10.86
2017-12-21T10:55:28.161Z,10.80
2017-12-21T10:56:28.153Z,10.73
2017-12-21T10:57:28.144Z,10.87
2017-12-21T10:58:28.134Z,10.86
2017-12-21T10:59:28.126Z,10.95
2017-12-21T11:00:28.120Z,10.99
2017-12-21T11:01:28.110Z,10.90
2017-12-21T11:02:28.102Z,10.86
2017-12-21T11:03:28.096Z,10.93
2017-12-21T11:04:28.088Z,10.83
2017-12-21T11:05:28.080Z,10.75
2017-12-21T11:06:28.077Z,10.69
2017-12-21T11:07:28.070Z,10.76
2017-12-21T11:08:28.062Z,10.81
2017-12-21T11:09:28.054Z,10.80
2017-12-21T11:10:28.046Z,10.87
2017-12-21T11:11:28.041Z,10.91
2017-12-21T11:12:28.030Z,10.83
2017-12-21T11:13:28.023Z,10.86
2017-12-21T11:14:28.012Z,10.86
2017-12-21T11:15:28.005Z,10.86
2017-12-21T11:16:27.998Z,10.87
2017-12-21T11:17:27.990Z,10.93
2017-12-21T11:18:27.982Z,10.90
2017-12-21T11:19:27.977Z,10.93
2017-12-21T11:20:27.966Z,10.86
2017-12-21T11:21:27.960Z,10.84
2017-12-21T11:22:27.956Z,10.86
2017-12-21T11:23:27.949Z,10.84
2017-12-21T11:24:27.941Z,10.84
2017-12-21T11:25:27.932Z,10.88
2017-12-21T11:26:27.921Z,10.83
2017-12-21T11:27:27.913Z,10.84
2017-12-21T11:28:27.906Z,10.84
2017-12-21T11:29:27.899Z,10.81
2017-12-21T11:30:27.896Z,10.87
2017-12-21T11:31:27.891Z,10.87
2017-12-21T11:32:27.887Z,10.86
2017-12-21T11:33:27.874Z,10.93
2017-12-21T11:34:27.867Z,10.93
2017-12-21T11:35:27.858Z,10.93
2017-12-21T11:36:27.850Z,10.91
2017-12-21T11:37:27.843Z,10.93
2017-12-21T11:38:27.832Z,10.90
2017-12-21T11:39:27.825Z,10.99
2017-12-21T11:40:27.815Z,10.94
2017-12-21T11:41:27.811Z,10.91
2017-12-21T11:42:27.801Z,10.83
2017-12-21T11:43:27.793Z,10.86
2017-12-21T11:44:27.789Z,10.90
2017-12-21T11:45:27.777Z,10.87
2017-12-21T11:46:27.775Z,10.93
2017-12-21T11:47:27.769Z,10.94
2017-12-21T11:48:27.760Z,10.83
2017-12-21T11:49:27.751Z,10.95
2017-12-21T11:50:27.745Z,11.03
2017-12-21T11:51:27.744Z,10.90
2017-12-21T11:52:27.732Z,10.91
2017-12-21T11:53:27.722Z,10.99
2017-12-21T11:54:27.711Z,11.03
2017-12-21T11:55:27.703Z,11.05
2017-12-21T11:56:27.695Z,10.93
2017-12-21T11:57:27.687Z,11.01
2017-12-21T11:58:27.680Z,10.99
2017-12-21T11:59:27.672Z,11.03
2017-12-21T12:00:27.665Z,11.11
2017-12-21T12:01:27.658Z,11.17
2017-12-21T12:02:27.653Z,11.06
2017-12-21T12:03:27.647Z,11.06
2017-12-21T12:05:27.631Z,11.08
2017-12-21T12:06:27.624Z,11.05
2017-12-21T12:07:27.616Z,10.94
2017-12-21T12:08:27.608Z,10.94
2017-12-21T12:09:27.604Z,10.98
2017-12-21T12:10:27.595Z,10.99
2017-12-21T12:11:27.582Z,11.03
2017-12-21T12:12:27.573Z,11.03
2017-12-21T12:13:27.567Z,11.01
2017-12-21T12:14:27.560Z,11.05
2017-12-21T12:15:27.553Z,11.05
2017-12-21T12:16:27.544Z,11.06
2017-12-21T12:17:27.537Z,11.02
2017-12-21T12:18:27.530Z,11.11
2017-12-21T12:19:27.527Z,11.03
2017-12-21T12:20:27.519Z,11.12
2017-12-21T12:21:27.512Z,11.01
2017-12-21T12:22:27.505Z,10.98
2017-12-21T12:23:27.496Z,11.05
2017-12-21T12:24:27.488Z,11.09
2017-12-21T12:25:27.483Z,11.06
2017-12-21T12:26:27.475Z,11.02
2017-12-21T12:27:27.464Z,11.03
2017-12-21T12:28:27.457Z,11.05
2017-12-21T12:29:27.448Z,11.06
2017-12-21T12:30:27.440Z,11.02
2017-12-21T12:31:27.438Z,11.13
2017-12-21T12:32:27.431Z,11.02
2017-12-21T12:33:27.423Z,11.13
2017-12-21T12:34:27.416Z,11.09
2017-12-21T12:35:27.410Z,11.16
2017-12-21T12:36:27.396Z,11.09
2017-12-21T12:37:27.389Z,11.13
2017-12-21T12:38:27.382Z,11.13
2017-12-21T12:39:27.374Z,11.12
2017-12-21T12:40:27.367Z,11.21
2017-12-21T12:41:27.360Z,11.19
2017-12-21T12:42:27.351Z,11.16
2017-12-21T12:43:27.349Z,11.16
2017-12-21T12:44:27.398Z,11.05
2017-12-21T12:45:27.338Z,11.11
2017-12-21T12:46:27.327Z,11.08
2017-12-21T12:47:27.320Z,11.16
2017-12-21T12:48:27.311Z,11.01
2017-12-21T12:49:27.304Z,11.11
2017-12-21T12:50:27.298Z,11.19
2017-12-21T12:51:27.286Z,11.11
2017-12-21T12:52:27.278Z,11.12
2017-12-21T12:53:27.271Z,11.09
2017-12-21T12:54:27.262Z,11.16
2017-12-21T12:55:27.257Z,11.05
2017-12-21T12:56:27.250Z,11.16
2017-12-21T12:57:27.240Z,11.03
2017-12-21T12:58:27.234Z,11.06
2017-12-21T12:59:27.232Z,11.06
2017-12-21T13:00:27.223Z,11.13
2017-12-21T13:01:27.216Z,11.17
2017-12-21T13:02:27.208Z,11.19
2017-12-21T13:03:27.203Z,11.17
2017-12-21T13:04:27.194Z,11.30
2017-12-21T13:05:27.187Z,11.16
2017-12-21T13:06:27.180Z,11.16
2017-12-21T13:07:27.170Z,11.21
2017-12-21T13:08:27.159Z,11.11
2017-12-21T13:09:27.154Z,11.19
2017-12-21T13:10:27.145Z,11.20
2017-12-21T13:11:27.139Z,11.20